sensor_id;sensor_type;location;lat;lon;timestamp;P1;durP1;ratioP1;P2;durP2;ratioP2
10122;SDS011;5101;49.038;8.710;2024-01-11T00:00:04;46.20;;;24.73;;
10122;SDS011;5101;49.038;8.710;2024-01-11T00:02:31;37.43;;;22.63;;
10122;SDS011;5101;49.038;8.710;2024-01-11T00:04:56;43.33;;;25.20;;
10122;SDS011;5101;49.038;8.710;2024-01-11T00:07:22;40.43;;;23.97;;
10122;SDS011;5101;49.038;8.710;2024-01-11T00:09:47;39.37;;;22.90;;
10122;SDS011;5101;49.038;8.710;2024-01-11T00:12:12;41.20;;;23.03;;
10122;SDS011;5101;49.038;8.710;2024-01-11T00:14:38;38.60;;;22.40;;
10122;SDS011;5101;49.038;8.710;2024-01-11T00:17:03;36.53;;;22.27;;
10122;SDS011;5101;49.038;8.710;2024-01-11T00:19:29;35.70;;;21.77;;
10122;SDS011;5101;49.038;8.710;2024-01-11T00:21:54;39.70;;;22.90;;
10122;SDS011;5101;49.038;8.710;2024-01-11T00:24:20;40.33;;;22.50;;
10122;SDS011;5101;49.038;8.710;2024-01-11T00:26:45;39.57;;;23.33;;
10122;SDS011;5101;49.038;8.710;2024-01-11T00:29:11;40.27;;;23.27;;
10122;SDS011;5101;49.038;8.710;2024-01-11T00:31:37;40.80;;;24.07;;
10122;SDS011;5101;49.038;8.710;2024-01-11T00:34:03;39.27;;;22.93;;
10122;SDS011;5101;49.038;8.710;2024-01-11T00:36:29;38.63;;;24.03;;
10122;SDS011;5101;49.038;8.710;2024-01-11T00:38:54;39.97;;;24.50;;
10122;SDS011;5101;49.038;8.710;2024-01-11T00:41:20;41.93;;;25.17;;
10122;SDS011;5101;49.038;8.710;2024-01-11T00:43:45;41.07;;;24.87;;
10122;SDS011;5101;49.038;8.710;2024-01-11T00:46:11;42.23;;;23.90;;
10122;SDS011;5101;49.038;8.710;2024-01-11T00:48:36;41.70;;;24.03;;
10122;SDS011;5101;49.038;8.710;2024-01-11T00:51:03;41.50;;;24.63;;
10122;SDS011;5101;49.038;8.710;2024-01-11T00:53:30;38.70;;;23.63;;
10122;SDS011;5101;49.038;8.710;2024-01-11T00:55:57;42.17;;;23.27;;
10122;SDS011;5101;49.038;8.710;2024-01-11T00:58:22;40.37;;;23.60;;
10122;SDS011;5101;49.038;8.710;2024-01-11T01:00:48;41.30;;;25.03;;
10122;SDS011;5101;49.038;8.710;2024-01-11T01:03:14;39.85;;;25.10;;
10122;SDS011;5101;49.038;8.710;2024-01-11T01:05:41;39.40;;;25.03;;
10122;SDS011;5101;49.038;8.710;2024-01-11T01:08:06;39.67;;;22.70;;
10122;SDS011;5101;49.038;8.710;2024-01-11T01:10:32;38.43;;;24.13;;
10122;SDS011;5101;49.038;8.710;2024-01-11T01:12:57;38.63;;;22.90;;
10122;SDS011;5101;49.038;8.710;2024-01-11T01:15:23;40.37;;;23.53;;
10122;SDS011;5101;49.038;8.710;2024-01-11T01:17:48;35.43;;;23.17;;
10122;SDS011;5101;49.038;8.710;2024-01-11T01:20:14;38.10;;;22.60;;
10122;SDS011;5101;49.038;8.710;2024-01-11T01:22:39;43.22;;;30.33;;
10122;SDS011;5101;49.038;8.710;2024-01-11T01:25:05;43.67;;;25.70;;
10122;SDS011;5101;49.038;8.710;2024-01-11T01:27:31;42.03;;;23.97;;
10122;SDS011;5101;49.038;8.710;2024-01-11T01:29:56;38.13;;;23.57;;
10122;SDS011;5101;49.038;8.710;2024-01-11T01:32:22;39.73;;;23.00;;
10122;SDS011;5101;49.038;8.710;2024-01-11T01:34:47;40.50;;;22.90;;
10122;SDS011;5101;49.038;8.710;2024-01-11T01:37:13;38.80;;;22.60;;
10122;SDS011;5101;49.038;8.710;2024-01-11T01:39:38;38.00;;;23.03;;
10122;SDS011;5101;49.038;8.710;2024-01-11T01:42:04;37.43;;;21.80;;
10122;SDS011;5101;49.038;8.710;2024-01-11T01:44:31;36.23;;;22.73;;
10122;SDS011;5101;49.038;8.710;2024-01-11T01:46:56;38.93;;;22.90;;
10122;SDS011;5101;49.038;8.710;2024-01-11T01:49:22;39.27;;;22.17;;
10122;SDS011;5101;49.038;8.710;2024-01-11T01:51:48;36.87;;;21.80;;
10122;SDS011;5101;49.038;8.710;2024-01-11T01:54:15;40.93;;;22.20;;
10122;SDS011;5101;49.038;8.710;2024-01-11T01:56:41;35.17;;;22.17;;
10122;SDS011;5101;49.038;8.710;2024-01-11T01:59:07;38.70;;;22.00;;
10122;SDS011;5101;49.038;8.710;2024-01-11T02:01:33;39.17;;;23.37;;
10122;SDS011;5101;49.038;8.710;2024-01-11T02:03:59;38.37;;;23.10;;
10122;SDS011;5101;49.038;8.710;2024-01-11T02:06:25;41.57;;;23.87;;
10122;SDS011;5101;49.038;8.710;2024-01-11T02:08:54;38.20;;;22.60;;
10122;SDS011;5101;49.038;8.710;2024-01-11T02:11:21;38.83;;;23.87;;
10122;SDS011;5101;49.038;8.710;2024-01-11T02:13:48;37.67;;;23.03;;
10122;SDS011;5101;49.038;8.710;2024-01-11T02:16:14;41.13;;;22.43;;
10122;SDS011;5101;49.038;8.710;2024-01-11T02:18:40;39.77;;;22.90;;
10122;SDS011;5101;49.038;8.710;2024-01-11T02:21:06;37.67;;;21.43;;
10122;SDS011;5101;49.038;8.710;2024-01-11T02:23:36;34.93;;;21.93;;
10122;SDS011;5101;49.038;8.710;2024-01-11T02:26:12;41.53;;;23.90;;
10122;SDS011;5101;49.038;8.710;2024-01-11T02:28:38;40.97;;;24.03;;
10122;SDS011;5101;49.038;8.710;2024-01-11T02:31:10;44.87;;;25.43;;
10122;SDS011;5101;49.038;8.710;2024-01-11T02:33:37;42.50;;;23.93;;
10122;SDS011;5101;49.038;8.710;2024-01-11T02:36:03;40.33;;;23.70;;
10122;SDS011;5101;49.038;8.710;2024-01-11T02:38:29;43.23;;;24.03;;
10122;SDS011;5101;49.038;8.710;2024-01-11T02:40:55;38.57;;;24.17;;
10122;SDS011;5101;49.038;8.710;2024-01-11T02:43:23;38.83;;;23.40;;
10122;SDS011;5101;49.038;8.710;2024-01-11T02:45:49;38.83;;;23.80;;
10122;SDS011;5101;49.038;8.710;2024-01-11T02:48:14;39.77;;;23.40;;
10122;SDS011;5101;49.038;8.710;2024-01-11T02:50:39;39.97;;;23.50;;
10122;SDS011;5101;49.038;8.710;2024-01-11T02:53:05;37.47;;;23.80;;
10122;SDS011;5101;49.038;8.710;2024-01-11T02:55:30;37.60;;;22.93;;
10122;SDS011;5101;49.038;8.710;2024-01-11T02:57:56;38.70;;;22.97;;
10122;SDS011;5101;49.038;8.710;2024-01-11T03:00:21;36.97;;;23.27;;
10122;SDS011;5101;49.038;8.710;2024-01-11T03:02:47;37.57;;;22.40;;
10122;SDS011;5101;49.038;8.710;2024-01-11T03:05:12;40.00;;;22.73;;
10122;SDS011;5101;49.038;8.710;2024-01-11T03:07:38;35.53;;;22.50;;
10122;SDS011;5101;49.038;8.710;2024-01-11T03:10:04;37.13;;;22.30;;
10122;SDS011;5101;49.038;8.710;2024-01-11T03:12:30;38.43;;;22.60;;
10122;SDS011;5101;49.038;8.710;2024-01-11T03:14:55;41.27;;;22.63;;
10122;SDS011;5101;49.038;8.710;2024-01-11T03:17:21;39.90;;;23.00;;
10122;SDS011;5101;49.038;8.710;2024-01-11T03:19:46;36.80;;;22.03;;
10122;SDS011;5101;49.038;8.710;2024-01-11T03:22:12;41.13;;;21.37;;
10122;SDS011;5101;49.038;8.710;2024-01-11T03:24:37;38.07;;;21.87;;
10122;SDS011;5101;49.038;8.710;2024-01-11T03:27:06;33.67;;;21.77;;
10122;SDS011;5101;49.038;8.710;2024-01-11T03:29:31;38.10;;;22.20;;
10122;SDS011;5101;49.038;8.710;2024-01-11T03:31:57;39.83;;;22.57;;
10122;SDS011;5101;49.038;8.710;2024-01-11T03:34:22;40.07;;;22.60;;
10122;SDS011;5101;49.038;8.710;2024-01-11T03:36:48;36.50;;;22.93;;
10122;SDS011;5101;49.038;8.710;2024-01-11T03:39:13;38.90;;;22.20;;
10122;SDS011;5101;49.038;8.710;2024-01-11T03:41:45;39.47;;;22.30;;
10122;SDS011;5101;49.038;8.710;2024-01-11T03:44:11;36.57;;;21.70;;
10122;SDS011;5101;49.038;8.710;2024-01-11T03:46:37;35.87;;;20.93;;
10122;SDS011;5101;49.038;8.710;2024-01-11T03:49:02;34.10;;;20.57;;
10122;SDS011;5101;49.038;8.710;2024-01-11T03:51:28;38.13;;;21.27;;
10122;SDS011;5101;49.038;8.710;2024-01-11T03:53:53;37.73;;;21.63;;
10122;SDS011;5101;49.038;8.710;2024-01-11T03:56:19;38.07;;;21.90;;
10122;SDS011;5101;49.038;8.710;2024-01-11T03:58:44;40.07;;;23.17;;
10122;SDS011;5101;49.038;8.710;2024-01-11T04:01:10;38.40;;;22.20;;
10122;SDS011;5101;49.038;8.710;2024-01-11T04:03:36;40.17;;;22.77;;
10122;SDS011;5101;49.038;8.710;2024-01-11T04:06:02;34.47;;;21.90;;
10122;SDS011;5101;49.038;8.710;2024-01-11T04:08:28;35.80;;;21.63;;
10122;SDS011;5101;49.038;8.710;2024-01-11T04:10:54;38.97;;;21.73;;
10122;SDS011;5101;49.038;8.710;2024-01-11T04:13:19;35.77;;;21.73;;
10122;SDS011;5101;49.038;8.710;2024-01-11T04:15:45;34.70;;;21.17;;
10122;SDS011;5101;49.038;8.710;2024-01-11T04:18:10;37.90;;;22.43;;
10122;SDS011;5101;49.038;8.710;2024-01-11T04:20:36;35.80;;;21.10;;
10122;SDS011;5101;49.038;8.710;2024-01-11T04:23:01;36.07;;;21.93;;
10122;SDS011;5101;49.038;8.710;2024-01-11T04:25:27;36.30;;;21.60;;
10122;SDS011;5101;49.038;8.710;2024-01-11T04:27:52;39.13;;;22.13;;
10122;SDS011;5101;49.038;8.710;2024-01-11T04:30:18;36.93;;;20.83;;
10122;SDS011;5101;49.038;8.710;2024-01-11T04:32:43;38.57;;;21.37;;
10122;SDS011;5101;49.038;8.710;2024-01-11T04:35:09;38.27;;;22.53;;
10122;SDS011;5101;49.038;8.710;2024-01-11T04:37:35;35.40;;;22.23;;
10122;SDS011;5101;49.038;8.710;2024-01-11T04:40:01;41.90;;;22.43;;
10122;SDS011;5101;49.038;8.710;2024-01-11T04:42:27;38.33;;;22.60;;
10122;SDS011;5101;49.038;8.710;2024-01-11T04:44:53;37.87;;;21.87;;
10122;SDS011;5101;49.038;8.710;2024-01-11T04:47:18;37.87;;;22.07;;
10122;SDS011;5101;49.038;8.710;2024-01-11T04:49:44;36.30;;;22.30;;
10122;SDS011;5101;49.038;8.710;2024-01-11T04:52:09;38.57;;;21.67;;
10122;SDS011;5101;49.038;8.710;2024-01-11T04:54:35;39.23;;;23.10;;
10122;SDS011;5101;49.038;8.710;2024-01-11T04:57:00;40.23;;;23.37;;
10122;SDS011;5101;49.038;8.710;2024-01-11T04:59:26;39.40;;;22.60;;
10122;SDS011;5101;49.038;8.710;2024-01-11T05:01:51;41.80;;;22.17;;
10122;SDS011;5101;49.038;8.710;2024-01-11T05:04:17;40.50;;;22.30;;
10122;SDS011;5101;49.038;8.710;2024-01-11T05:09:11;39.67;;;22.53;;
10122;SDS011;5101;49.038;8.710;2024-01-11T05:11:37;37.97;;;22.50;;
10122;SDS011;5101;49.038;8.710;2024-01-11T05:14:02;38.83;;;22.53;;
10122;SDS011;5101;49.038;8.710;2024-01-11T05:16:28;42.83;;;23.67;;
10122;SDS011;5101;49.038;8.710;2024-01-11T05:18:55;42.67;;;22.27;;
10122;SDS011;5101;49.038;8.710;2024-01-11T05:21:21;41.07;;;22.63;;
10122;SDS011;5101;49.038;8.710;2024-01-11T05:23:47;37.67;;;21.17;;
10122;SDS011;5101;49.038;8.710;2024-01-11T05:26:14;36.60;;;21.53;;
10122;SDS011;5101;49.038;8.710;2024-01-11T05:28:41;40.13;;;22.03;;
10122;SDS011;5101;49.038;8.710;2024-01-11T05:31:07;40.83;;;22.13;;
10122;SDS011;5101;49.038;8.710;2024-01-11T05:33:37;39.37;;;23.13;;
10122;SDS011;5101;49.038;8.710;2024-01-11T05:36:03;38.73;;;21.90;;
10122;SDS011;5101;49.038;8.710;2024-01-11T05:38:29;42.77;;;22.40;;
10122;SDS011;5101;49.038;8.710;2024-01-11T05:40:55;40.13;;;22.93;;
10122;SDS011;5101;49.038;8.710;2024-01-11T05:43:21;41.80;;;22.77;;
10122;SDS011;5101;49.038;8.710;2024-01-11T05:45:48;42.80;;;22.50;;
10122;SDS011;5101;49.038;8.710;2024-01-11T05:48:13;41.00;;;23.93;;
10122;SDS011;5101;49.038;8.710;2024-01-11T05:50:39;41.80;;;22.40;;
10122;SDS011;5101;49.038;8.710;2024-01-11T05:53:05;38.73;;;22.50;;
10122;SDS011;5101;49.038;8.710;2024-01-11T05:55:30;37.40;;;21.93;;
10122;SDS011;5101;49.038;8.710;2024-01-11T05:57:56;36.87;;;21.97;;
10122;SDS011;5101;49.038;8.710;2024-01-11T06:00:21;36.97;;;23.07;;
10122;SDS011;5101;49.038;8.710;2024-01-11T06:02:48;42.10;;;22.33;;
10122;SDS011;5101;49.038;8.710;2024-01-11T06:05:13;40.77;;;22.90;;
10122;SDS011;5101;49.038;8.710;2024-01-11T06:07:40;37.50;;;22.87;;
10122;SDS011;5101;49.038;8.710;2024-01-11T06:10:05;36.47;;;22.43;;
10122;SDS011;5101;49.038;8.710;2024-01-11T06:12:33;45.10;;;23.73;;
10122;SDS011;5101;49.038;8.710;2024-01-11T06:14:59;43.53;;;23.93;;
10122;SDS011;5101;49.038;8.710;2024-01-11T06:17:24;47.23;;;23.13;;
10122;SDS011;5101;49.038;8.710;2024-01-11T06:19:50;43.13;;;24.10;;
10122;SDS011;5101;49.038;8.710;2024-01-11T06:22:15;42.63;;;24.80;;
10122;SDS011;5101;49.038;8.710;2024-01-11T06:24:41;41.53;;;24.20;;
10122;SDS011;5101;49.038;8.710;2024-01-11T06:27:06;43.67;;;23.43;;
10122;SDS011;5101;49.038;8.710;2024-01-11T06:29:32;43.10;;;25.20;;
10122;SDS011;5101;49.038;8.710;2024-01-11T06:31:57;40.80;;;24.10;;
10122;SDS011;5101;49.038;8.710;2024-01-11T06:34:23;39.17;;;23.40;;
10122;SDS011;5101;49.038;8.710;2024-01-11T06:36:48;44.67;;;24.37;;
10122;SDS011;5101;49.038;8.710;2024-01-11T06:39:14;39.97;;;23.40;;
10122;SDS011;5101;49.038;8.710;2024-01-11T06:41:39;43.80;;;24.53;;
10122;SDS011;5101;49.038;8.710;2024-01-11T06:44:05;42.37;;;24.17;;
10122;SDS011;5101;49.038;8.710;2024-01-11T06:46:30;40.17;;;22.77;;
10122;SDS011;5101;49.038;8.710;2024-01-11T06:48:56;41.23;;;23.77;;
10122;SDS011;5101;49.038;8.710;2024-01-11T06:51:22;40.73;;;24.13;;
10122;SDS011;5101;49.038;8.710;2024-01-11T06:53:48;38.57;;;23.50;;
10122;SDS011;5101;49.038;8.710;2024-01-11T06:56:15;41.13;;;24.17;;
10122;SDS011;5101;49.038;8.710;2024-01-11T06:58:41;41.57;;;23.63;;
10122;SDS011;5101;49.038;8.710;2024-01-11T07:01:06;44.40;;;24.00;;
10122;SDS011;5101;49.038;8.710;2024-01-11T07:03:32;42.30;;;24.93;;
10122;SDS011;5101;49.038;8.710;2024-01-11T07:05:57;46.57;;;25.30;;
10122;SDS011;5101;49.038;8.710;2024-01-11T07:08:23;45.67;;;24.87;;
10122;SDS011;5101;49.038;8.710;2024-01-11T07:10:48;45.27;;;25.43;;
10122;SDS011;5101;49.038;8.710;2024-01-11T07:13:14;49.57;;;24.43;;
10122;SDS011;5101;49.038;8.710;2024-01-11T07:15:42;45.07;;;25.60;;
10122;SDS011;5101;49.038;8.710;2024-01-11T07:18:07;44.03;;;26.60;;
10122;SDS011;5101;49.038;8.710;2024-01-11T07:20:33;46.40;;;25.07;;
10122;SDS011;5101;49.038;8.710;2024-01-11T07:22:59;43.33;;;25.97;;
10122;SDS011;5101;49.038;8.710;2024-01-11T07:25:24;46.23;;;26.47;;
10122;SDS011;5101;49.038;8.710;2024-01-11T07:27:50;44.80;;;25.33;;
10122;SDS011;5101;49.038;8.710;2024-01-11T07:30:16;42.53;;;24.87;;
10122;SDS011;5101;49.038;8.710;2024-01-11T07:32:43;46.80;;;25.63;;
10122;SDS011;5101;49.038;8.710;2024-01-11T07:35:09;46.17;;;25.97;;
10122;SDS011;5101;49.038;8.710;2024-01-11T07:37:36;43.90;;;25.77;;
10122;SDS011;5101;49.038;8.710;2024-01-11T07:40:02;46.77;;;24.57;;
10122;SDS011;5101;49.038;8.710;2024-01-11T07:42:27;44.73;;;24.83;;
10122;SDS011;5101;49.038;8.710;2024-01-11T07:44:53;44.90;;;24.67;;
10122;SDS011;5101;49.038;8.710;2024-01-11T07:47:18;40.13;;;23.33;;
10122;SDS011;5101;49.038;8.710;2024-01-11T07:49:44;47.23;;;25.23;;
10122;SDS011;5101;49.038;8.710;2024-01-11T07:52:09;57.90;;;26.17;;
10122;SDS011;5101;49.038;8.710;2024-01-11T07:54:35;50.03;;;29.03;;
10122;SDS011;5101;49.038;8.710;2024-01-11T07:57:00;44.47;;;25.90;;
10122;SDS011;5101;49.038;8.710;2024-01-11T07:59:28;46.63;;;27.03;;
10122;SDS011;5101;49.038;8.710;2024-01-11T08:01:57;43.93;;;26.10;;
10122;SDS011;5101;49.038;8.710;2024-01-11T08:04:22;45.03;;;25.17;;
10122;SDS011;5101;49.038;8.710;2024-01-11T08:06:48;45.07;;;25.93;;
10122;SDS011;5101;49.038;8.710;2024-01-11T08:09:14;40.77;;;24.47;;
10122;SDS011;5101;49.038;8.710;2024-01-11T08:11:39;47.97;;;26.67;;
10122;SDS011;5101;49.038;8.710;2024-01-11T08:14:06;48.97;;;27.50;;
10122;SDS011;5101;49.038;8.710;2024-01-11T08:16:32;46.53;;;25.83;;
10122;SDS011;5101;49.038;8.710;2024-01-11T08:18:57;43.57;;;25.30;;
10122;SDS011;5101;49.038;8.710;2024-01-11T08:21:23;47.53;;;26.53;;
10122;SDS011;5101;49.038;8.710;2024-01-11T08:23:49;49.03;;;26.63;;
10122;SDS011;5101;49.038;8.710;2024-01-11T08:26:15;47.97;;;26.40;;
10122;SDS011;5101;49.038;8.710;2024-01-11T08:28:41;50.17;;;27.33;;
10122;SDS011;5101;49.038;8.710;2024-01-11T08:31:07;46.73;;;26.90;;
10122;SDS011;5101;49.038;8.710;2024-01-11T08:33:33;50.53;;;27.80;;
10122;SDS011;5101;49.038;8.710;2024-01-11T08:35:59;52.77;;;28.37;;
10122;SDS011;5101;49.038;8.710;2024-01-11T08:38:25;52.17;;;29.37;;
10122;SDS011;5101;49.038;8.710;2024-01-11T08:40:50;46.50;;;28.80;;
10122;SDS011;5101;49.038;8.710;2024-01-11T08:43:16;48.03;;;27.53;;
10122;SDS011;5101;49.038;8.710;2024-01-11T08:45:42;48.43;;;28.50;;
10122;SDS011;5101;49.038;8.710;2024-01-11T08:48:08;46.37;;;28.20;;
10122;SDS011;5101;49.038;8.710;2024-01-11T08:50:34;47.43;;;26.83;;
10122;SDS011;5101;49.038;8.710;2024-01-11T08:53:00;45.03;;;27.80;;
10122;SDS011;5101;49.038;8.710;2024-01-11T08:55:25;44.90;;;25.57;;
10122;SDS011;5101;49.038;8.710;2024-01-11T08:57:51;41.13;;;24.23;;
10122;SDS011;5101;49.038;8.710;2024-01-11T09:00:17;39.77;;;23.83;;
10122;SDS011;5101;49.038;8.710;2024-01-11T09:02:43;38.53;;;21.63;;
10122;SDS011;5101;49.038;8.710;2024-01-11T09:05:09;36.90;;;26.67;;
10122;SDS011;5101;49.038;8.710;2024-01-11T09:07:34;40.63;;;28.67;;
10122;SDS011;5101;49.038;8.710;2024-01-11T09:10:00;34.77;;;22.30;;
10122;SDS011;5101;49.038;8.710;2024-01-11T09:12:25;35.03;;;26.47;;
10122;SDS011;5101;49.038;8.710;2024-01-11T09:14:51;36.17;;;25.27;;
10122;SDS011;5101;49.038;8.710;2024-01-11T09:17:16;32.10;;;21.30;;
10122;SDS011;5101;49.038;8.710;2024-01-11T09:19:42;32.33;;;20.20;;
10122;SDS011;5101;49.038;8.710;2024-01-11T09:22:07;35.20;;;21.77;;
10122;SDS011;5101;49.038;8.710;2024-01-11T09:24:36;34.37;;;20.70;;
10122;SDS011;5101;49.038;8.710;2024-01-11T09:27:02;34.67;;;21.67;;
10122;SDS011;5101;49.038;8.710;2024-01-11T09:29:29;31.60;;;20.10;;
10122;SDS011;5101;49.038;8.710;2024-01-11T09:31:54;34.00;;;21.80;;
10122;SDS011;5101;49.038;8.710;2024-01-11T09:34:20;33.50;;;21.97;;
10122;SDS011;5101;49.038;8.710;2024-01-11T09:36:45;32.10;;;19.87;;
10122;SDS011;5101;49.038;8.710;2024-01-11T09:39:11;27.67;;;19.37;;
10122;SDS011;5101;49.038;8.710;2024-01-11T09:41:38;33.10;;;20.83;;
10122;SDS011;5101;49.038;8.710;2024-01-11T09:44:08;33.33;;;24.67;;
10122;SDS011;5101;49.038;8.710;2024-01-11T09:46:34;30.07;;;20.27;;
10122;SDS011;5101;49.038;8.710;2024-01-11T09:49:01;31.70;;;20.40;;
10122;SDS011;5101;49.038;8.710;2024-01-11T09:51:29;30.77;;;21.57;;
10122;SDS011;5101;49.038;8.710;2024-01-11T09:53:55;31.57;;;20.13;;
10122;SDS011;5101;49.038;8.710;2024-01-11T09:56:23;31.20;;;20.00;;
10122;SDS011;5101;49.038;8.710;2024-01-11T09:58:50;31.27;;;20.90;;
10122;SDS011;5101;49.038;8.710;2024-01-11T10:01:16;29.57;;;19.03;;
10122;SDS011;5101;49.038;8.710;2024-01-11T10:03:42;30.37;;;20.70;;
10122;SDS011;5101;49.038;8.710;2024-01-11T10:06:08;34.20;;;22.03;;
10122;SDS011;5101;49.038;8.710;2024-01-11T10:08:35;34.27;;;21.17;;
10122;SDS011;5101;49.038;8.710;2024-01-11T10:11:01;31.20;;;20.90;;
10122;SDS011;5101;49.038;8.710;2024-01-11T10:13:28;30.63;;;20.77;;
10122;SDS011;5101;49.038;8.710;2024-01-11T10:16:07;30.60;;;20.63;;
10122;SDS011;5101;49.038;8.710;2024-01-11T10:18:40;25.73;;;19.57;;
10122;SDS011;5101;49.038;8.710;2024-01-11T10:21:06;31.43;;;20.87;;
10122;SDS011;5101;49.038;8.710;2024-01-11T10:23:38;32.03;;;20.73;;
10122;SDS011;5101;49.038;8.710;2024-01-11T10:26:04;29.53;;;20.93;;
10122;SDS011;5101;49.038;8.710;2024-01-11T10:28:29;30.33;;;21.03;;
10122;SDS011;5101;49.038;8.710;2024-01-11T10:30:55;30.40;;;20.43;;
10122;SDS011;5101;49.038;8.710;2024-01-11T10:33:22;30.70;;;21.33;;
10122;SDS011;5101;49.038;8.710;2024-01-11T10:35:50;34.70;;;23.47;;
10122;SDS011;5101;49.038;8.710;2024-01-11T10:38:16;33.33;;;22.53;;
10122;SDS011;5101;49.038;8.710;2024-01-11T10:40:42;32.00;;;22.07;;
10122;SDS011;5101;49.038;8.710;2024-01-11T10:43:08;32.53;;;21.90;;
10122;SDS011;5101;49.038;8.710;2024-01-11T10:45:38;28.03;;;20.73;;
10122;SDS011;5101;49.038;8.710;2024-01-11T10:48:09;29.93;;;21.93;;
10122;SDS011;5101;49.038;8.710;2024-01-11T10:50:41;33.63;;;22.30;;
10122;SDS011;5101;49.038;8.710;2024-01-11T10:56:02;33.17;;;22.00;;
10122;SDS011;5101;49.038;8.710;2024-01-11T10:58:29;31.37;;;22.67;;
10122;SDS011;5101;49.038;8.710;2024-01-11T11:00:56;29.83;;;21.83;;
10122;SDS011;5101;49.038;8.710;2024-01-11T11:03:24;32.33;;;22.70;;
10122;SDS011;5101;49.038;8.710;2024-01-11T11:05:53;30.77;;;21.80;;
10122;SDS011;5101;49.038;8.710;2024-01-11T11:08:20;31.53;;;20.97;;
10122;SDS011;5101;49.038;8.710;2024-01-11T11:10:47;31.60;;;21.47;;
10122;SDS011;5101;49.038;8.710;2024-01-11T11:13:16;30.67;;;21.07;;
10122;SDS011;5101;49.038;8.710;2024-01-11T11:15:46;33.87;;;22.27;;
10122;SDS011;5101;49.038;8.710;2024-01-11T11:18:12;34.30;;;22.97;;
10122;SDS011;5101;49.038;8.710;2024-01-11T11:20:39;33.37;;;22.47;;
10122;SDS011;5101;49.038;8.710;2024-01-11T11:23:07;32.80;;;21.70;;
10122;SDS011;5101;49.038;8.710;2024-01-11T11:25:34;29.90;;;21.80;;
10122;SDS011;5101;49.038;8.710;2024-01-11T11:28:00;35.73;;;21.80;;
10122;SDS011;5101;49.038;8.710;2024-01-11T11:30:29;33.93;;;21.77;;
10122;SDS011;5101;49.038;8.710;2024-01-11T11:32:57;31.10;;;21.87;;
10122;SDS011;5101;49.038;8.710;2024-01-11T11:35:31;33.67;;;22.23;;
10122;SDS011;5101;49.038;8.710;2024-01-11T11:37:57;29.57;;;21.50;;
10122;SDS011;5101;49.038;8.710;2024-01-11T11:40:38;30.43;;;21.33;;
10122;SDS011;5101;49.038;8.710;2024-01-11T11:43:07;29.10;;;21.47;;
10122;SDS011;5101;49.038;8.710;2024-01-11T11:45:34;31.63;;;21.90;;
10122;SDS011;5101;49.038;8.710;2024-01-11T11:48:00;30.20;;;20.97;;
10122;SDS011;5101;49.038;8.710;2024-01-11T11:50:26;31.43;;;22.23;;
10122;SDS011;5101;49.038;8.710;2024-01-11T11:52:54;30.97;;;21.53;;
10122;SDS011;5101;49.038;8.710;2024-01-11T11:55:22;34.13;;;21.80;;
10122;SDS011;5101;49.038;8.710;2024-01-11T11:57:49;31.60;;;22.77;;
10122;SDS011;5101;49.038;8.710;2024-01-11T12:00:16;29.43;;;21.57;;
10122;SDS011;5101;49.038;8.710;2024-01-11T12:02:42;31.70;;;21.60;;
10122;SDS011;5101;49.038;8.710;2024-01-11T12:05:07;30.00;;;22.60;;
10122;SDS011;5101;49.038;8.710;2024-01-11T12:07:33;31.20;;;21.43;;
10122;SDS011;5101;49.038;8.710;2024-01-11T12:09:59;108.17;;;66.57;;
10122;SDS011;5101;49.038;8.710;2024-01-11T12:12:25;35.17;;;22.47;;
10122;SDS011;5101;49.038;8.710;2024-01-11T12:14:51;34.30;;;21.47;;
10122;SDS011;5101;49.038;8.710;2024-01-11T12:17:18;30.47;;;21.30;;
10122;SDS011;5101;49.038;8.710;2024-01-11T12:19:43;30.07;;;20.97;;
10122;SDS011;5101;49.038;8.710;2024-01-11T12:22:08;29.40;;;20.23;;
10122;SDS011;5101;49.038;8.710;2024-01-11T12:24:34;35.53;;;21.83;;
10122;SDS011;5101;49.038;8.710;2024-01-11T12:27:00;30.13;;;21.23;;
10122;SDS011;5101;49.038;8.710;2024-01-11T12:29:29;31.53;;;20.87;;
10122;SDS011;5101;49.038;8.710;2024-01-11T12:31:56;30.93;;;21.03;;
10122;SDS011;5101;49.038;8.710;2024-01-11T12:34:23;33.00;;;21.57;;
10122;SDS011;5101;49.038;8.710;2024-01-11T12:36:49;29.60;;;21.23;;
10122;SDS011;5101;49.038;8.710;2024-01-11T12:39:16;28.53;;;20.40;;
10122;SDS011;5101;49.038;8.710;2024-01-11T12:41:42;31.27;;;21.60;;
10122;SDS011;5101;49.038;8.710;2024-01-11T12:44:08;29.73;;;20.47;;
10122;SDS011;5101;49.038;8.710;2024-01-11T12:46:33;28.77;;;21.40;;
10122;SDS011;5101;49.038;8.710;2024-01-11T12:48:59;32.17;;;21.27;;
10122;SDS011;5101;49.038;8.710;2024-01-11T12:51:25;30.57;;;20.67;;
10122;SDS011;5101;49.038;8.710;2024-01-11T12:53:51;30.43;;;21.50;;
10122;SDS011;5101;49.038;8.710;2024-01-11T12:56:18;32.00;;;22.33;;
10122;SDS011;5101;49.038;8.710;2024-01-11T12:58:46;29.53;;;20.70;;
10122;SDS011;5101;49.038;8.710;2024-01-11T13:01:12;28.70;;;21.10;;
10122;SDS011;5101;49.038;8.710;2024-01-11T13:03:39;30.30;;;20.73;;
10122;SDS011;5101;49.038;8.710;2024-01-11T13:06:08;32.77;;;21.93;;
10122;SDS011;5101;49.038;8.710;2024-01-11T13:08:34;31.77;;;21.10;;
10122;SDS011;5101;49.038;8.710;2024-01-11T13:11:02;32.13;;;22.13;;
10122;SDS011;5101;49.038;8.710;2024-01-11T13:13:32;32.83;;;21.67;;
10122;SDS011;5101;49.038;8.710;2024-01-11T13:16:01;29.13;;;20.23;;
10122;SDS011;5101;49.038;8.710;2024-01-11T13:18:30;31.33;;;20.77;;
10122;SDS011;5101;49.038;8.710;2024-01-11T13:20:57;31.00;;;20.77;;
10122;SDS011;5101;49.038;8.710;2024-01-11T13:23:22;30.60;;;19.77;;
10122;SDS011;5101;49.038;8.710;2024-01-11T13:25:49;30.00;;;19.80;;
10122;SDS011;5101;49.038;8.710;2024-01-11T13:28:15;25.43;;;18.67;;
10122;SDS011;5101;49.038;8.710;2024-01-11T13:30:41;28.53;;;19.03;;
10122;SDS011;5101;49.038;8.710;2024-01-11T13:33:08;27.10;;;19.40;;
10122;SDS011;5101;49.038;8.710;2024-01-11T13:35:35;27.27;;;19.00;;
10122;SDS011;5101;49.038;8.710;2024-01-11T13:38:02;28.80;;;19.30;;
10122;SDS011;5101;49.038;8.710;2024-01-11T13:40:28;27.07;;;18.87;;
10122;SDS011;5101;49.038;8.710;2024-01-11T13:42:55;26.03;;;18.17;;
10122;SDS011;5101;49.038;8.710;2024-01-11T13:45:24;25.67;;;18.40;;
10122;SDS011;5101;49.038;8.710;2024-01-11T13:47:50;28.97;;;18.80;;
10122;SDS011;5101;49.038;8.710;2024-01-11T13:50:16;23.80;;;17.53;;
10122;SDS011;5101;49.038;8.710;2024-01-11T13:52:43;23.87;;;17.97;;
10122;SDS011;5101;49.038;8.710;2024-01-11T13:55:09;26.63;;;18.03;;
10122;SDS011;5101;49.038;8.710;2024-01-11T13:57:36;27.67;;;17.37;;
10122;SDS011;5101;49.038;8.710;2024-01-11T14:00:02;25.33;;;17.90;;
10122;SDS011;5101;49.038;8.710;2024-01-11T14:02:31;24.70;;;17.00;;
10122;SDS011;5101;49.038;8.710;2024-01-11T14:04:57;27.47;;;18.53;;
10122;SDS011;5101;49.038;8.710;2024-01-11T14:07:23;27.23;;;17.57;;
10122;SDS011;5101;49.038;8.710;2024-01-11T14:09:49;24.97;;;17.47;;
10122;SDS011;5101;49.038;8.710;2024-01-11T14:12:15;23.47;;;17.00;;
10122;SDS011;5101;49.038;8.710;2024-01-11T14:14:41;27.33;;;18.43;;
10122;SDS011;5101;49.038;8.710;2024-01-11T14:17:07;26.73;;;17.77;;
10122;SDS011;5101;49.038;8.710;2024-01-11T14:19:33;24.53;;;17.50;;
10122;SDS011;5101;49.038;8.710;2024-01-11T14:21:58;27.77;;;16.40;;
10122;SDS011;5101;49.038;8.710;2024-01-11T14:24:24;27.27;;;18.37;;
10122;SDS011;5101;49.038;8.710;2024-01-11T14:26:50;23.60;;;16.77;;
10122;SDS011;5101;49.038;8.710;2024-01-11T14:29:16;26.73;;;18.83;;
10122;SDS011;5101;49.038;8.710;2024-01-11T14:31:41;28.30;;;19.00;;